Time;durP1;ratioP1;P1;durP2;ratioP2;P2;SDS_P1;SDS_P2;PMS_P1;PMS_P2;Temp;Humidity;BMP_temperature;BMP_pressure;BME280_temperature;BME280_humidity;BME280_pressure;Samples;Min_cycle;Max_cycle;Signal;HPM_P1;HPM_P2
2024/01/22 00:02:05;;;;;;;13.80;6.57;;;;;;;1.14;72.35;101258.88;6268254;22;20020;-69
2024/01/22 00:04:31;;;;;;;16.05;6.65;;;;;;;1.08;72.59;101256.44;6269346;22;20015;-69
2024/01/22 00:06:58;;;;;;;12.93;6.55;;;;;;;1.12;72.17;101266.06;6271029;22;20047;-68
2024/01/22 00:09:26;;;;;;;13.77;6.47;;;;;;;1.04;72.66;101256.63;6271027;22;20105;-68
2024/01/22 00:11:53;;;;;;;18.20;6.15;;;;;;;1.03;72.68;101245.06;6270349;22;20023;-69
2024/01/22 00:14:20;;;;;;;16.88;6.88;;;;;;;1.06;72.72;101255.66;6270069;22;20514;-68
2024/01/22 00:16:46;;;;;;;13.98;5.57;;;;;;;1.03;72.93;101253.09;6272328;22;20411;-68
2024/01/22 00:19:13;;;;;;;12.75;6.50;;;;;;;1.06;73.08;101247.63;6273127;22;20101;-68
2024/01/22 00:21:42;;;;;;;12.85;6.30;;;;;;;1.04;73.00;101236.13;6271351;22;20028;-68
2024/01/22 00:24:09;;;;;;;10.90;5.97;;;;;;;1.08;72.60;101232.41;6270800;22;20438;-67
2024/01/22 00:26:36;;;;;;;12.15;5.70;;;;;;;1.00;73.06;101224.69;6270371;22;20326;-69
2024/01/22 00:29:03;;;;;;;12.90;5.90;;;;;;;1.04;73.24;101220.09;6270421;22;20335;-68
2024/01/22 00:31:29;;;;;;;18.27;6.35;;;;;;;1.05;73.26;101216.53;6270338;22;20323;-68
2024/01/22 00:33:57;;;;;;;16.98;6.45;;;;;;;1.01;73.73;101201.53;6270255;22;20074;-68
2024/01/22 00:36:23;;;;;;;14.60;6.47;;;;;;;1.02;73.36;101189.91;6270135;22;20019;-69
2024/01/22 00:38:50;;;;;;;22.70;5.68;;;;;;;1.00;73.76;101181.09;6271066;22;20070;-67
2024/01/22 00:41:17;;;;;;;14.00;6.45;;;;;;;0.95;74.12;101178.63;6270111;22;20023;-67
2024/01/22 00:43:47;;;;;;;16.98;6.68;;;;;;;0.97;74.30;101175.91;6269631;22;20342;-68
2024/01/22 00:46:13;;;;;;;18.00;6.35;;;;;;;0.98;74.33;101177.63;6270142;22;20032;-67
2024/01/22 00:48:40;;;;;;;14.80;6.38;;;;;;;1.02;74.29;101181.03;6268551;22;20023;-68
2024/01/22 00:51:06;;;;;;;10.80;5.78;;;;;;;1.08;73.91;101178.97;6269800;22;20027;-67
2024/01/22 00:53:33;;;;;;;12.02;5.82;;;;;;;1.08;74.22;101165.63;6270248;22;20095;-67
2024/01/22 00:56:00;;;;;;;13.45;5.57;;;;;;;1.12;73.47;101166.34;6269450;22;20019;-67
2024/01/22 00:58:27;;;;;;;14.35;6.82;;;;;;;1.15;74.09;101158.22;6272861;22;20023;-69
2024/01/22 01:00:54;;;;;;;12.65;6.38;;;;;;;1.14;73.81;101160.03;6270625;22;20040;-67
2024/01/22 01:03:21;;;;;;;13.38;5.35;;;;;;;1.13;73.88;101138.69;6268338;22;20371;-67
2024/01/22 01:05:48;;;;;;;14.98;5.88;;;;;;;1.16;74.27;101141.25;6267765;22;20016;-67
2024/01/22 01:08:15;;;;;;;12.43;5.88;;;;;;;1.24;73.89;101126.66;6269875;22;20037;-67
2024/01/22 01:10:42;;;;;;;14.20;5.55;;;;;;;1.22;73.68;101130.28;6271205;22;20367;-68
2024/01/22 01:13:08;;;;;;;11.57;5.70;;;;;;;1.26;73.56;101127.44;6268996;22;20039;-75
2024/01/22 01:15:35;;;;;;;11.88;5.45;;;;;;;1.29;73.35;101119.28;6267172;22;20031;-75
2024/01/22 01:18:02;;;;;;;13.07;5.60;;;;;;;1.26;73.55;101118.56;6266948;22;20361;-74
2024/01/22 01:20:29;;;;;;;12.05;5.60;;;;;;;1.34;73.02;101120.91;6268157;22;20354;-75
2024/01/22 01:22:56;;;;;;;10.65;4.75;;;;;;;1.42;72.63;101118.72;6266001;22;20030;-75
2024/01/22 01:25:23;;;;;;;10.00;4.90;;;;;;;1.44;72.38;101106.19;6266553;22;20024;-74
2024/01/22 01:27:50;;;;;;;13.43;5.90;;;;;;;1.46;72.35;101121.22;6267955;22;20101;-74
2024/01/22 01:30:17;;;;;;;11.55;4.78;;;;;;;1.47;72.25;101112.25;6266403;22;20044;-76
2024/01/22 01:32:43;;;;;;;12.20;5.10;;;;;;;1.49;72.24;101098.81;6266434;22;20366;-74
2024/01/22 01:35:10;;;;;;;8.93;5.10;;;;;;;1.45;72.30;101103.44;6267892;22;20345;-75
2024/01/22 01:37:37;;;;;;;14.23;5.20;;;;;;;1.45;72.39;101099.91;6267318;22;20036;-75
2024/01/22 01:40:05;;;;;;;17.75;5.28;;;;;;;1.47;72.78;101098.03;6267438;22;20062;-74
2024/01/22 01:42:31;;;;;;;12.40;5.05;;;;;;;1.47;72.80;101087.34;6268261;22;20016;-74
2024/01/22 01:44:58;;;;;;;10.00;4.82;;;;;;;1.49;72.71;101082.78;6268390;22;20122;-76
2024/01/22 01:47:25;;;;;;;10.63;4.75;;;;;;;1.56;72.70;101089.59;6266896;22;20434;-76
2024/01/22 01:49:52;;;;;;;12.73;4.70;;;;;;;1.53;72.37;101079.06;6264377;22;20103;-75
2024/01/22 01:52:19;;;;;;;13.00;4.75;;;;;;;1.55;72.77;101053.97;6266159;22;20068;-75
2024/01/22 01:54:47;;;;;;;12.55;4.93;;;;;;;1.52;72.71;101062.16;6266889;22;20169;-75
2024/01/22 01:57:13;;;;;;;12.50;5.50;;;;;;;1.59;72.49;101038.66;6267030;22;20346;-75
2024/01/22 01:59:42;;;;;;;9.88;4.35;;;;;;;1.54;73.14;101027.31;6264943;22;20321;-74
2024/01/22 02:02:09;;;;;;;9.70;4.55;;;;;;;1.58;72.72;101031.56;6265777;22;20067;-75
2024/01/22 02:04:36;;;;;;;12.75;4.93;;;;;;;1.62;72.97;101025.16;6239519;22;20032;-70
2024/01/22 02:07:21;;;;;;;11.80;5.05;;;;;;;1.57;73.05;101019.16;6269517;22;20024;-70
2024/01/22 02:09:49;;;;;;;12.55;5.05;;;;;;;1.62;73.26;101013.59;6264177;22;20031;-70
2024/01/22 02:12:17;;;;;;;9.43;4.78;;;;;;;1.62;73.13;101009.13;6266695;22;20038;-70
2024/01/22 02:14:47;;;;;;;10.10;5.38;;;;;;;1.60;73.37;101007.44;6267548;22;20034;-70
2024/01/22 02:17:15;;;;;;;12.63;4.93;;;;;;;1.60;73.99;101010.13;6268215;22;20411;-70
2024/01/22 02:19:42;;;;;;;12.60;4.70;;;;;;;1.65;73.56;100998.28;6241680;22;20326;-70
2024/01/22 02:22:11;;;;;;;10.00;4.43;;;;;;;1.69;74.06;100988.28;6269030;22;20448;-70
2024/01/22 02:24:37;;;;;;;10.68;4.43;;;;;;;1.68;73.95;100970.53;6266347;22;20019;-70
2024/01/22 02:27:04;;;;;;;9.77;4.70;;;;;;;1.72;74.22;100967.66;6264287;22;20031;-69
2024/01/22 02:29:31;;;;;;;10.63;5.13;;;;;;;1.81;74.10;100956.50;6265114;22;20024;-71
2024/01/22 02:31:58;;;;;;;9.88;4.68;;;;;;;1.81;74.27;100966.34;6265320;22;20019;-69
2024/01/22 02:34:24;;;;;;;10.00;4.72;;;;;;;1.86;74.30;100953.59;6264907;22;20070;-69
2024/01/22 02:36:51;;;;;;;8.98;4.70;;;;;;;1.90;74.83;100940.97;6266913;22;20058;-69
2024/01/22 02:39:18;;;;;;;9.50;4.53;;;;;;;1.96;74.71;100927.25;6266649;22;20024;-69
2024/01/22 02:41:44;;;;;;;11.43;4.32;;;;;;;1.95;74.89;100931.75;6265378;22;20020;-69
2024/01/22 02:44:12;;;;;;;8.85;4.13;;;;;;;1.97;75.05;100942.38;6266958;22;20027;-68
2024/01/22 02:46:38;;;;;;;9.95;4.53;;;;;;;2.03;74.89;100955.44;6263777;22;20042;-69
2024/01/22 02:49:08;;;;;;;8.10;4.43;;;;;;;2.09;75.22;100939.97;6266081;22;20027;-69
2024/01/22 02:51:35;;;;;;;7.53;4.07;;;;;;;2.12;75.31;100939.81;6266619;22;20031;-69
2024/01/22 02:54:03;;;;;;;8.25;4.22;;;;;;;2.22;75.48;100934.88;6264570;22;20023;-70
2024/01/22 02:56:30;;;;;;;13.55;5.03;;;;;;;2.23;75.29;100920.53;6237391;22;20032;-69
2024/01/22 02:58:58;;;;;;;12.43;4.38;;;;;;;2.25;75.54;100918.63;6265813;22;20028;-69
2024/01/22 03:01:25;;;;;;;7.72;3.55;;;;;;;2.27;75.63;100916.78;6267213;22;20028;-69
2024/01/22 03:03:52;;;;;;;11.02;4.57;;;;;;;2.33;75.18;100931.63;6265170;22;20342;-69
2024/01/22 03:06:19;;;;;;;14.10;4.43;;;;;;;2.35;75.98;100924.38;6262476;22;20031;-69
2024/01/22 03:08:45;;;;;;;13.05;4.05;;;;;;;2.38;75.76;100908.19;6262303;22;20051;-69
2024/01/22 03:11:12;;;;;;;11.05;3.85;;;;;;;2.34;75.82;100918.19;6265118;22;20333;-69
2024/01/22 03:13:39;;;;;;;9.50;3.97;;;;;;;2.40;75.99;100901.81;6264609;22;20364;-69
2024/01/22 03:16:05;;;;;;;11.90;4.28;;;;;;;2.37;76.06;100895.75;6264548;22;20100;-69
2024/01/22 03:18:32;;;;;;;9.32;4.53;;;;;;;2.43;76.29;100906.13;6263638;22;20020;-69
2024/01/22 03:21:02;;;;;;;9.80;4.63;;;;;;;2.43;76.28;100901.63;6264654;22;20097;-69
2024/01/22 03:23:30;;;;;;;10.50;4.93;;;;;;;2.46;76.38;100889.06;6261966;22;20097;-69
2024/01/22 03:25:57;;;;;;;12.20;3.85;;;;;;;2.56;75.95;100884.97;6264477;22;20015;-69
2024/01/22 03:28:23;;;;;;;9.40;4.05;;;;;;;2.55;75.93;100876.06;6265883;22;20469;-70
2024/01/22 03:30:50;;;;;;;11.35;4.40;;;;;;;2.52;76.41;100888.72;6264814;22;20381;-68
2024/01/22 03:33:17;;;;;;;9.45;4.10;;;;;;;2.58;75.92;100878.56;6264815;22;20063;-68
2024/01/22 03:35:45;;;;;;;8.40;4.00;;;;;;;2.51;76.18;100887.84;6263681;22;20096;-69
2024/01/22 03:38:12;;;;;;;8.55;4.57;;;;;;;2.53;76.39;100869.91;6266109;22;20063;-70
2024/01/22 03:40:39;;;;;;;9.30;4.82;;;;;;;2.54;76.63;100879.69;6267049;22;20091;-70
2024/01/22 03:43:05;;;;;;;9.23;4.03;;;;;;;2.53;77.00;100871.72;6266000;22;20019;-70
2024/01/22 03:45:32;;;;;;;6.13;3.72;;;;;;;2.59;76.32;100869.59;6266805;22;20403;-69
2024/01/22 03:47:58;;;;;;;12.25;4.03;;;;;;;2.64;76.15;100854.16;6266970;22;20030;-69
2024/01/22 03:50:25;;;;;;;8.55;4.15;;;;;;;2.61;76.93;100850.75;6267756;22;20087;-69
2024/01/22 03:52:52;;;;;;;9.63;4.30;;;;;;;2.59;77.24;100847.31;6266909;22;20064;-68
2024/01/22 03:55:19;;;;;;;7.32;3.30;;;;;;;2.63;76.96;100843.50;6266872;22;20139;-69
2024/01/22 03:57:46;;;;;;;10.73;3.88;;;;;;;2.66;77.34;100838.88;6266976;22;20046;-69
2024/01/22 04:00:13;;;;;;;14.60;4.03;;;;;;;2.68;77.18;100825.38;6267929;22;20081;-69
2024/01/22 04:02:40;;;;;;;9.73;4.55;;;;;;;2.71;76.98;100825.22;6265339;22;20096;-69
2024/01/22 04:05:07;;;;;;;6.97;3.58;;;;;;;2.82;77.23;100806.78;6241137;22;20024;-69
2024/01/22 04:07:34;;;;;;;12.18;4.25;;;;;;;2.79;77.35;100790.84;6268969;22;20028;-71
2024/01/22 04:10:02;;;;;;;10.68;3.78;;;;;;;2.72;78.35;100784.09;6266308;22;20031;-69
2024/01/22 04:12:28;;;;;;;9.18;3.90;;;;;;;2.71;78.26;100766.28;6266413;22;20036;-69
2024/01/22 04:14:55;;;;;;;9.57;4.45;;;;;;;2.68;78.49;100783.41;6269866;22;20024;-69
2024/01/22 04:17:21;;;;;;;11.52;4.93;;;;;;;2.74;78.79;100771.50;6268909;22;20031;-68
2024/01/22 04:19:49;;;;;;;9.10;3.55;;;;;;;2.74;79.20;100765.28;6269011;22;20424;-68
2024/01/22 04:22:16;;;;;;;8.07;4.20;;;;;;;2.71;79.49;100758.25;6267673;22;20050;-69
2024/01/22 04:24:42;;;;;;;14.32;3.75;;;;;;;2.74;79.33;100760.78;6267337;22;20035;-69
2024/01/22 04:27:09;;;;;;;9.02;3.85;;;;;;;2.72;79.09;100762.66;6270040;22;20411;-71
2024/01/22 04:29:36;;;;;;;9.43;3.83;;;;;;;2.75;79.71;100762.50;6267354;22;20071;-69
2024/01/22 04:32:03;;;;;;;12.30;4.30;;;;;;;2.81;78.43;100747.91;6264869;22;20058;-70
2024/01/22 04:34:29;;;;;;;7.22;3.38;;;;;;;2.85;78.94;100761.06;6265965;22;20027;-70
2024/01/22 04:36:56;;;;;;;9.63;3.75;;;;;;;2.87;78.30;100750.25;6266931;22;20074;-71
2024/01/22 04:39:24;;;;;;;9.30;3.90;;;;;;;2.91;78.46;100751.81;6268393;22;20035;-71
2024/01/22 04:41:51;;;;;;;8.55;3.80;;;;;;;2.88;78.65;100811.78;6266332;22;20166;-70
2024/01/22 04:44:18;;;;;;;10.40;3.80;;;;;;;2.99;78.85;100782.56;6238882;22;20382;-69
2024/01/22 04:46:44;;;;;;;7.75;3.42;;;;;;;2.86;79.27;100802.97;6266318;22;20027;-70
2024/01/22 04:49:11;;;;;;;10.30;3.25;;;;;;;2.98;78.75;100778.16;6266135;22;20024;-70
2024/01/22 04:51:44;;;;;;;8.32;3.67;;;;;;;2.90;78.60;100777.72;6264647;22;20415;-69
2024/01/22 04:54:11;;;;;;;8.35;2.92;;;;;;;2.97;78.12;100752.31;6266894;22;20314;-71
2024/01/22 04:56:41;;;;;;;6.90;2.90;;;;;;;3.09;77.58;100736.50;6266851;22;20031;-69
2024/01/22 04:59:08;;;;;;;7.15;3.30;;;;;;;3.06;77.91;100716.09;6267475;22;20027;-70
2024/01/22 05:01:35;;;;;;;10.60;3.42;;;;;;;3.05;77.73;100674.19;6239417;22;20020;-70
2024/01/22 05:04:03;;;;;;;6.57;2.97;;;;;;;3.01;78.06;100635.13;6266184;22;20020;-70
2024/01/22 05:06:30;;;;;;;12.32;3.53;;;;;;;2.98;78.19;100619.22;6264359;22;20030;-70
2024/01/22 05:08:57;;;;;;;7.93;3.75;;;;;;;2.95;78.75;100663.13;6266365;22;20023;-71
2024/01/22 05:11:24;;;;;;;10.07;2.97;;;;;;;3.03;77.94;100656.47;6268351;22;20035;-70
2024/01/22 05:13:52;;;;;;;7.28;3.00;;;;;;;3.04;78.19;100655.53;6264825;22;20026;-71
2024/01/22 05:16:21;;;;;;;7.82;3.25;;;;;;;3.08;78.22;100667.78;6267700;22;20015;-69
2024/01/22 05:18:49;;;;;;;10.65;2.92;;;;;;;3.11;78.49;100657.75;6270466;22;20402;-67
2024/01/22 05:21:16;;;;;;;9.57;3.15;;;;;;;3.17;78.23;100656.53;6271335;22;20082;-67
2024/01/22 05:23:43;;;;;;;7.82;2.85;;;;;;;3.24;77.95;100642.66;6271515;22;20092;-69
2024/01/22 05:26:10;;;;;;;7.97;2.63;;;;;;;3.27;78.01;100641.63;6273916;22;20093;-68
2024/01/22 05:28:37;;;;;;;5.78;2.90;;;;;;;3.35;77.80;100623.25;6273791;22;20015;-68
2024/01/22 05:31:04;;;;;;;6.55;2.97;;;;;;;3.43;77.21;100621.00;6246474;22;20097;-68
2024/01/22 05:33:31;;;;;;;8.80;2.50;;;;;;;3.47;77.29;100598.41;6274361;22;20024;-68
2024/01/22 05:35:58;;;;;;;9.93;2.75;;;;;;;3.60;76.57;100584.25;6274385;22;20293;-68
2024/01/22 05:38:25;;;;;;;10.55;3.10;;;;;;;3.69;76.11;100586.38;6274678;22;20019;-67
2024/01/22 05:40:51;;;;;;;5.45;2.20;;;;;;;3.74;75.89;100603.88;6275409;22;20445;-69
2024/01/22 05:43:18;;;;;;;3.95;2.50;;;;;;;3.81;75.63;100582.91;6274460;22;20434;-68
2024/01/22 05:45:44;;;;;;;10.05;2.65;;;;;;;3.91;75.02;100594.78;6272532;22;20096;-68
2024/01/22 05:48:11;;;;;;;6.35;2.40;;;;;;;4.02;74.63;100573.50;6272468;22;20371;-68
2024/01/22 05:50:38;;;;;;;6.10;2.03;;;;;;;4.10;74.98;100557.78;6259484;22;20085;-68
2024/01/22 05:53:05;;;;;;;8.10;2.05;;;;;;;4.30;73.86;100563.69;6239357;23;20024;-68
2024/01/22 05:55:31;;;;;;;5.05;1.95;;;;;;;4.35;73.74;100550.81;6238829;23;20028;-69
2024/01/22 05:57:58;;;;;;;5.20;1.85;;;;;;;4.36;73.67;100555.22;6237434;23;20024;-67
2024/01/22 06:00:25;;;;;;;6.63;2.00;;;;;;;4.38;73.91;100539.88;6236274;23;20020;-67
2024/01/22 06:02:52;;;;;;;5.95;2.20;;;;;;;4.52;72.99;100520.19;6236954;23;20445;-68
2024/01/22 06:05:20;;;;;;;5.55;1.65;;;;;;;4.49;73.70;100532.00;6238960;23;20063;-68
2024/01/22 06:07:46;;;;;;;6.55;1.92;;;;;;;4.56;73.25;100521.69;6237337;23;20040;-68
2024/01/22 06:10:13;;;;;;;5.63;1.73;;;;;;;4.58;73.24;100525.13;6236447;23;20101;-67
2024/01/22 06:12:39;;;;;;;6.30;1.90;;;;;;;4.57;73.11;100513.53;6211468;23;20106;-68
2024/01/22 06:15:07;;;;;;;9.27;2.05;;;;;;;4.64;73.15;100512.16;6237989;23;20035;-67
2024/01/22 06:17:34;;;;;;;5.13;1.90;;;;;;;4.71;72.72;100520.69;6239887;23;20024;-67
2024/01/22 06:20:01;;;;;;;6.28;1.80;;;;;;;4.70;72.57;100514.44;6241688;23;20058;-68
2024/01/22 06:22:28;;;;;;;8.40;1.88;;;;;;;4.68;73.08;100516.38;6238620;23;20028;-68
2024/01/22 06:24:55;;;;;;;8.10;2.10;;;;;;;4.85;71.77;100522.41;6236983;23;20072;-68
2024/01/22 06:27:22;;;;;;;4.95;1.80;;;;;;;4.81;72.30;100520.91;6237852;23;20419;-69
2024/01/22 06:29:48;;;;;;;8.52;1.48;;;;;;;4.84;72.16;100526.06;6236819;23;20071;-69
2024/01/22 06:32:17;;;;;;;3.17;1.60;;;;;;;4.84;72.25;100534.13;6237730;23;20016;-69
2024/01/22 06:34:46;;;;;;;6.15;1.85;;;;;;;4.85;71.95;100527.78;6236922;23;20086;-68
2024/01/22 06:37:15;;;;;;;5.15;1.80;;;;;;;4.91;72.10;100546.25;6237557;23;20031;-69
2024/01/22 06:39:42;;;;;;;6.03;1.75;;;;;;;4.93;72.08;100522.78;6236201;23;20094;-69
2024/01/22 06:42:08;;;;;;;5.43;1.88;;;;;;;4.88;72.58;100527.59;6246293;23;20059;-69
2024/01/22 06:44:42;;;;;;;5.72;1.77;;;;;;;4.87;72.95;100507.94;6246953;23;20016;-69
2024/01/22 06:47:10;;;;;;;5.55;1.65;;;;;;;4.91;72.41;100517.53;6247318;23;20092;-68
2024/01/22 06:49:37;;;;;;;6.07;1.60;;;;;;;4.97;71.86;100516.25;6247240;23;20020;-68
2024/01/22 06:52:04;;;;;;;4.07;1.90;;;;;;;5.01;71.48;100501.63;6248516;22;20127;-70
2024/01/22 06:54:30;;;;;;;9.60;1.50;;;;;;;4.97;72.42;100513.56;6250476;23;20074;-71
2024/01/22 06:56:57;;;;;;;2.97;1.42;;;;;;;4.97;72.10;100501.00;6256667;23;20024;-70
2024/01/22 06:59:24;;;;;;;5.93;1.67;;;;;;;5.01;72.08;100501.63;6254842;23;20024;-69
2024/01/22 07:01:52;;;;;;;5.82;1.77;;;;;;;4.95;72.46;100496.66;6251220;23;20020;-70
2024/01/22 07:04:19;;;;;;;5.13;1.65;;;;;;;5.11;71.13;100491.97;6250779;23;20031;-69
2024/01/22 07:06:48;;;;;;;3.95;1.40;;;;;;;5.23;70.76;100488.41;6249861;23;20102;-69
2024/01/22 07:09:16;;;;;;;2.75;1.38;;;;;;;5.24;70.91;100486.63;6220067;23;20024;-68
2024/01/22 07:11:43;;;;;;;8.38;1.67;;;;;;;5.32;70.36;100478.00;6249768;23;20116;-70
2024/01/22 07:14:12;;;;;;;5.45;1.67;;;;;;;5.31;70.38;100476.28;6246887;23;20036;-68
2024/01/22 07:16:38;;;;;;;5.68;1.50;;;;;;;5.32;70.88;100478.00;6221952;23;20475;-68
2024/01/22 07:19:05;;;;;;;7.63;2.13;;;;;;;5.34;70.71;100489.53;6246840;23;20036;-67
2024/01/22 07:21:35;;;;;;;8.05;1.52;;;;;;;5.24;71.44;100475.88;6216842;23;20020;-68
2024/01/22 07:24:02;;;;;;;5.15;1.55;;;;;;;5.28;70.22;100474.66;6249052;23;20028;-68
2024/01/22 07:26:30;;;;;;;3.35;1.30;;;;;;;5.25;71.36;100470.38;6246024;23;20020;-69
2024/01/22 07:28:58;;;;;;;5.82;1.20;;;;;;;5.31;70.46;100465.50;6248010;23;20027;-69
2024/01/22 07:31:24;;;;;;;3.70;1.80;;;;;;;5.34;69.96;100478.75;6222413;23;20027;-67
2024/01/22 07:33:51;;;;;;;4.15;1.70;;;;;;;5.34;69.64;100481.44;6249739;23;20017;-68
2024/01/22 07:36:20;;;;;;;3.35;1.15;;;;;;;5.34;69.81;100465.31;6250655;23;20390;-68
2024/01/22 07:38:47;;;;;;;5.30;1.65;;;;;;;5.24;71.00;100463.28;6248350;23;20481;-69
2024/01/22 07:41:14;;;;;;;3.35;1.85;;;;;;;5.24;70.76;100460.59;6250725;23;20072;-68
2024/01/22 07:43:41;;;;;;;3.13;1.38;;;;;;;5.32;70.44;100446.56;6227956;23;20030;-71
2024/01/22 07:46:08;;;;;;;3.45;1.35;;;;;;;5.38;70.16;100435.41;6251770;23;20024;-69
2024/01/22 07:48:35;;;;;;;3.67;1.45;;;;;;;5.34;69.49;100451.88;6249563;23;20070;-69
2024/01/22 07:51:01;;;;;;;3.75;1.38;;;;;;;5.35;69.82;100450.91;6250271;22;20091;-68
2024/01/22 07:53:29;;;;;;;4.68;1.85;;;;;;;5.27;70.38;100441.53;6249723;23;20028;-68
2024/01/22 07:55:55;;;;;;;6.32;1.88;;;;;;;5.28;70.16;100443.25;6251420;23;20024;-69
2024/01/22 07:58:22;;;;;;;2.70;1.38;;;;;;;5.30;70.52;100443.13;6250164;23;20027;-70
2024/01/22 08:00:49;;;;;;;4.47;1.42;;;;;;;5.31;70.17;100441.31;6253111;23;20301;-69
2024/01/22 08:03:15;;;;;;;4.03;1.55;;;;;;;5.22;70.86;100445.50;6249998;23;20155;-68
2024/01/22 08:05:42;;;;;;;4.15;1.58;;;;;;;5.27;71.36;100443.38;6250910;23;20106;-69
2024/01/22 08:08:11;;;;;;;7.20;1.75;;;;;;;5.23;72.97;100448.09;6252439;23;20355;-68
2024/01/22 08:10:38;;;;;;;4.40;1.55;;;;;;;5.09;75.05;100445.53;6247637;23;20040;-68
2024/01/22 08:13:06;;;;;;;6.85;1.73;;;;;;;4.96;78.72;100450.91;6241607;23;20031;-69
2024/01/22 08:15:32;;;;;;;7.18;1.60;;;;;;;4.87;78.68;100445.28;6241356;23;20039;-69
2024/01/22 08:17:59;;;;;;;5.43;1.75;;;;;;;4.67;80.86;100444.78;6241460;23;20020;-69
2024/01/22 08:20:26;;;;;;;4.25;1.75;;;;;;;4.58;82.41;100442.72;6243198;23;20122;-69
2024/01/22 08:22:53;;;;;;;3.25;1.60;;;;;;;4.55;82.14;100448.31;6236920;23;20078;-70
2024/01/22 08:25:26;;;;;;;3.05;1.25;;;;;;;4.57;82.29;100438.31;6234011;23;20024;-70
2024/01/22 08:27:54;;;;;;;4.95;1.58;;;;;;;4.46;84.07;100440.00;6234195;23;20059;-68
2024/01/22 08:30:21;;;;;;;5.43;1.70;;;;;;;4.39;85.08;100450.31;6235511;23;20079;-70
2024/01/22 08:32:48;;;;;;;7.57;1.88;;;;;;;4.39;85.68;100431.50;6235452;23;20035;-71
2024/01/22 08:35:16;;;;;;;3.33;1.65;;;;;;;4.27;87.05;100427.81;6239007;23;20083;-71
2024/01/22 08:37:47;;;;;;;5.10;1.73;;;;;;;4.21;87.89;100430.94;6237636;23;20304;-71
2024/01/22 08:40:17;;;;;;;4.03;1.38;;;;;;;4.18;88.42;100431.13;6236172;23;20020;-71
2024/01/22 08:42:45;;;;;;;6.25;1.70;;;;;;;4.06;90.31;100432.81;6233085;23;20067;-71
2024/01/22 08:45:12;;;;;;;6.13;2.38;;;;;;;4.10;90.30;100436.13;6232880;23;20107;-71
2024/01/22 08:47:39;;;;;;;9.55;1.90;;;;;;;4.06;91.05;100429.25;6207276;23;20119;-72
2024/01/22 08:50:07;;;;;;;5.85;2.42;;;;;;;4.05;91.16;100425.72;6232358;22;20459;-72
2024/01/22 08:52:34;;;;;;;3.33;1.67;;;;;;;4.01;92.32;100417.94;6233501;23;20490;-71
2024/01/22 08:55:04;;;;;;;4.65;1.65;;;;;;;4.02;92.65;100425.03;6233269;23;20028;-71
2024/01/22 08:57:31;;;;;;;5.10;1.92;;;;;;;4.00;92.63;100406.34;6233506;23;20135;-71
2024/01/22 08:59:58;;;;;;;4.63;2.17;;;;;;;4.02;92.72;100423.22;6234502;23;20419;-71
2024/01/22 09:02:25;;;;;;;9.38;2.50;;;;;;;4.01;93.52;100426.00;6235952;23;20034;-71
2024/01/22 09:04:51;;;;;;;10.63;2.22;;;;;;;3.99;93.39;100414.50;6234001;23;20075;-71
2024/01/22 09:07:19;;;;;;;6.07;2.20;;;;;;;4.04;93.38;100412.41;6234862;23;20036;-71
2024/01/22 09:09:46;;;;;;;12.45;2.67;;;;;;;4.09;93.30;100421.84;6233957;23;20087;-71
2024/01/22 09:12:13;;;;;;;3.17;1.85;;;;;;;4.14;92.38;100414.38;6208842;23;20020;-72
2024/01/22 09:14:40;;;;;;;9.18;2.17;;;;;;;4.15;92.85;100421.47;6208300;23;20328;-71
2024/01/22 09:17:07;;;;;;;11.73;4.10;;;;;;;4.07;93.54;100418.41;6235223;23;20020;-71
2024/01/22 09:19:33;;;;;;;7.05;2.30;;;;;;;4.11;92.96;100414.56;6205213;23;20126;-71
2024/01/22 09:22:00;;;;;;;8.02;2.28;;;;;;;4.21;91.91;100422.88;6206978;23;20078;-71
2024/01/22 09:24:26;;;;;;;10.10;2.15;;;;;;;4.26;92.31;100417.19;6234785;23;20024;-71
2024/01/22 09:26:53;;;;;;;5.38;1.80;;;;;;;4.31;92.31;100415.06;6232116;23;20340;-72
2024/01/22 09:29:19;;;;;;;6.38;2.00;;;;;;;4.25;92.99;100402.06;6234740;23;20115;-72
2024/01/22 09:31:47;;;;;;;4.63;2.00;;;;;;;4.29;92.75;100406.25;6232415;23;20028;-73
2024/01/22 09:34:14;;;;;;;4.82;1.92;;;;;;;4.34;92.17;100398.75;6235006;23;20435;-72
2024/01/22 09:36:41;;;;;;;10.32;2.47;;;;;;;4.35;92.27;100385.22;6234151;23;20464;-72
2024/01/22 09:39:08;;;;;;;9.45;2.17;;;;;;;4.37;92.69;100382.41;6233482;23;20020;-72
2024/01/22 09:41:35;;;;;;;4.55;2.10;;;;;;;4.40;92.44;100384.91;6230413;23;20020;-72
2024/01/22 09:44:02;;;;;;;4.50;1.90;;;;;;;4.45;91.88;100380.06;6234432;23;20034;-73
2024/01/22 09:46:29;;;;;;;6.10;2.30;;;;;;;4.49;91.34;100378.91;6234658;23;20039;-72
2024/01/22 09:48:56;;;;;;;7.18;2.00;;;;;;;4.51;91.74;100368.91;6235929;23;20085;-72
2024/01/22 09:51:23;;;;;;;12.30;2.30;;;;;;;4.65;90.51;100374.19;6256036;22;20110;-70
2024/01/22 09:53:51;;;;;;;5.93;1.77;;;;;;;4.77;89.58;100374.28;6264175;22;20016;-70
2024/01/22 09:56:20;;;;;;;5.47;1.63;;;;;;;4.84;89.15;100375.59;6265800;22;20332;-72
2024/01/22 09:58:53;;;;;;;2.33;1.52;;;;;;;4.89;88.79;100362.72;6263202;22;24521;-71
2024/01/22 10:01:20;;;;;;;6.90;2.00;;;;;;;4.96;88.75;100369.41;6263834;22;20024;-71
2024/01/22 10:03:47;;;;;;;5.80;1.77;;;;;;;5.07;87.91;100366.81;6264022;22;20031;-71
2024/01/22 10:06:14;;;;;;;3.47;1.60;;;;;;;5.14;87.86;100368.09;6263718;22;20023;-71
2024/01/22 10:08:41;;;;;;;9.80;1.90;;;;;;;5.28;86.52;100354.50;6264420;22;20023;-72
2024/01/22 10:11:08;;;;;;;4.63;1.85;;;;;;;5.29;86.22;100339.25;6238015;22;20121;-73
2024/01/22 10:13:50;;;;;;;7.95;1.98;;;;;;;5.41;85.27;100349.09;6266868;22;20097;-72
2024/01/22 10:16:17;;;;;;;3.65;1.83;;;;;;;5.48;85.08;100341.44;6274260;22;20097;-72
2024/01/22 10:19:05;;;;;;;5.38;1.77;;;;;;;5.47;85.69;100328.97;6284914;22;20028;-72
2024/01/22 10:21:33;;;;;;;5.45;1.63;;;;;;;5.61;83.96;100328.81;6288333;22;20019;-73
2024/01/22 10:26:36;;;;;;;10.40;2.10;;;;;;;5.80;82.13;100307.66;6263679;22;20056;-71
2024/01/22 10:29:17;;;;;;;2.58;1.30;;;;;;;5.85;82.66;100321.59;6287970;22;20086;-73
2024/01/22 10:31:54;;;;;;;5.75;1.65;;;;;;;5.85;82.16;100312.66;6292086;22;20027;-73
2024/01/22 10:34:43;;;;;;;3.10;1.60;;;;;;;5.91;82.87;100308.66;6269213;22;20011;-73
2024/01/22 10:37:12;;;;;;;3.78;1.50;;;;;;;5.92;82.24;100299.63;6292138;22;20007;-73
2024/01/22 10:39:41;;;;;;;5.60;1.83;;;;;;;5.97;81.66;100290.19;6289413;22;20059;-72
2024/01/22 10:42:16;;;;;;;4.65;1.48;;;;;;;6.08;81.48;100300.19;6289236;22;20018;-73
2024/01/22 10:44:44;;;;;;;2.78;1.42;;;;;;;6.11;81.03;100291.84;6288702;22;20078;-72
2024/01/22 10:47:14;;;;;;;4.25;1.55;;;;;;;6.17;80.50;100288.69;6290997;22;20008;-71
2024/01/22 10:49:44;;;;;;;5.55;1.30;;;;;;;6.26;79.97;100292.50;6290161;22;20058;-72
2024/01/22 10:52:13;;;;;;;5.57;1.50;;;;;;;6.37;79.14;100284.47;6289886;22;20038;-70
2024/01/22 10:54:40;;;;;;;2.70;1.45;;;;;;;6.40;78.82;100277.00;6290987;22;20015;-72
2024/01/22 10:57:34;;;;;;;4.07;1.20;;;;;;;6.45;79.51;100275.78;6289555;22;20024;-70
2024/01/22 11:00:06;;;;;;;2.45;1.10;;;;;;;6.59;77.86;100281.78;6290209;22;20031;-72
2024/01/22 11:02:35;;;;;;;4.95;1.40;;;;;;;6.63;77.39;100268.91;6289801;22;20091;-71
2024/01/22 11:05:12;;;;;;;2.72;1.15;;;;;;;6.62;78.91;100259.13;6289522;22;20038;-71
2024/01/22 11:07:39;;;;;;;5.43;1.48;;;;;;;6.69;78.44;100265.75;6289552;22;19999;-71
2024/01/22 11:10:10;;;;;;;2.92;1.13;;;;;;;6.76;77.21;100248.13;6289806;22;20028;-71
2024/01/22 11:12:50;;;;;;;3.03;0.90;;;;;;;6.79;76.59;100253.25;6287149;22;20117;-71
2024/01/22 11:15:16;;;;;;;4.40;1.15;;;;;;;6.88;76.32;100252.50;6287755;22;20031;-71
2024/01/22 11:17:44;;;;;;;2.83;1.08;;;;;;;6.86;77.66;100235.59;6288446;22;20008;-71
2024/01/22 11:20:18;;;;;;;3.35;1.10;;;;;;;6.95;76.75;100226.78;6285770;22;20134;-72
2024/01/22 11:23:01;;;;;;;6.55;1.45;;;;;;;7.02;76.14;100218.19;6286716;22;20389;-72
2024/01/22 11:25:28;;;;;;;2.38;1.13;;;;;;;6.97;76.47;100219.41;6283677;22;20039;-71
2024/01/22 11:28:03;;;;;;;2.20;1.08;;;;;;;7.08;76.20;100217.69;6282731;22;20044;-71
2024/01/22 11:30:36;;;;;;;2.08;1.15;;;;;;;7.06;76.69;100200.78;6281375;22;20426;-70
2024/01/22 11:33:25;;;;;;;2.70;1.13;;;;;;;7.08;76.63;100207.75;6280534;22;20019;-70
2024/01/22 11:35:53;;;;;;;2.83;1.20;;;;;;;7.08;76.29;100198.81;6277799;22;20022;-71
2024/01/22 11:38:41;;;;;;;2.53;1.20;;;;;;;7.20;75.44;100208.59;6278903;22;20429;-69